sensor_id;sensor_type;location;lat;lon;timestamp;P1;durP1;ratioP1;P2;durP2;ratioP2
2406;SDS011;37709;53.480;9.688;2024-03-23T00:53:54;14.70;;;4.73;;
2406;SDS011;37709;53.480;9.688;2024-03-23T00:56:20;25.43;;;4.43;;
2406;SDS011;37709;53.480;9.688;2024-03-23T00:58:47;14.87;;;4.53;;
2406;SDS011;37709;53.480;9.688;2024-03-23T01:01:13;17.87;;;5.17;;
2406;SDS011;37709;53.480;9.688;2024-03-23T01:03:40;17.30;;;5.23;;
2406;SDS011;37709;53.480;9.688;2024-03-23T01:06:07;23.57;;;6.47;;
2406;SDS011;37709;53.480;9.688;2024-03-23T01:08:33;20.03;;;4.33;;
2406;SDS011;37709;53.480;9.688;2024-03-23T01:11:00;23.30;;;4.87;;
2406;SDS011;37709;53.480;9.688;2024-03-23T01:13:31;18.87;;;5.60;;
2406;SDS011;37709;53.480;9.688;2024-03-23T01:15:57;20.30;;;4.13;;
2406;SDS011;37709;53.480;9.688;2024-03-23T01:18:24;23.00;;;4.00;;
2406;SDS011;37709;53.480;9.688;2024-03-23T01:20:55;18.50;;;4.20;;
2406;SDS011;37709;53.480;9.688;2024-03-23T01:23:21;12.87;;;4.13;;
2406;SDS011;37709;53.480;9.688;2024-03-23T01:25:52;17.90;;;4.17;;
2406;SDS011;37709;53.480;9.688;2024-03-23T01:28:20;19.73;;;4.60;;
2406;SDS011;37709;53.480;9.688;2024-03-23T01:30:47;14.90;;;4.00;;
2406;SDS011;37709;53.480;9.688;2024-03-23T01:33:14;14.50;;;4.00;;
2406;SDS011;37709;53.480;9.688;2024-03-23T01:35:40;19.50;;;5.60;;
2406;SDS011;37709;53.480;9.688;2024-03-23T01:38:06;20.90;;;4.60;;
2406;SDS011;37709;53.480;9.688;2024-03-23T01:40:33;28.47;;;5.67;;
2406;SDS011;37709;53.480;9.688;2024-03-23T01:43:04;23.00;;;5.27;;
2406;SDS011;37709;53.480;9.688;2024-03-23T01:45:32;15.90;;;4.40;;
2406;SDS011;37709;53.480;9.688;2024-03-23T01:47:59;21.03;;;6.00;;
2406;SDS011;37709;53.480;9.688;2024-03-23T01:50:27;20.63;;;4.10;;
2406;SDS011;37709;53.480;9.688;2024-03-23T01:52:55;17.93;;;3.93;;
2406;SDS011;37709;53.480;9.688;2024-03-23T01:55:23;17.80;;;5.23;;
2406;SDS011;37709;53.480;9.688;2024-03-23T01:57:50;15.53;;;4.87;;
2406;SDS011;37709;53.480;9.688;2024-03-23T02:00:17;14.63;;;4.50;;
2406;SDS011;37709;53.480;9.688;2024-03-23T02:02:43;17.27;;;5.83;;
2406;SDS011;37709;53.480;9.688;2024-03-23T02:05:11;20.73;;;4.53;;
2406;SDS011;37709;53.480;9.688;2024-03-23T02:07:41;15.27;;;4.27;;
2406;SDS011;37709;53.480;9.688;2024-03-23T02:10:11;20.87;;;4.67;;
2406;SDS011;37709;53.480;9.688;2024-03-23T02:12:41;18.00;;;6.23;;
2406;SDS011;37709;53.480;9.688;2024-03-23T02:15:07;24.20;;;5.40;;
2406;SDS011;37709;53.480;9.688;2024-03-23T02:17:35;14.83;;;4.30;;
2406;SDS011;37709;53.480;9.688;2024-03-23T02:20:02;21.97;;;4.70;;
2406;SDS011;37709;53.480;9.688;2024-03-23T02:22:37;15.60;;;4.30;;
2406;SDS011;37709;53.480;9.688;2024-03-23T02:25:04;22.10;;;4.00;;
2406;SDS011;37709;53.480;9.688;2024-03-23T02:27:31;19.77;;;4.00;;
2406;SDS011;37709;53.480;9.688;2024-03-23T02:29:59;19.23;;;5.40;;
2406;SDS011;37709;53.480;9.688;2024-03-23T02:32:25;16.53;;;4.70;;
2406;SDS011;37709;53.480;9.688;2024-03-23T02:34:51;18.50;;;4.67;;
2406;SDS011;37709;53.480;9.688;2024-03-23T02:37:19;20.03;;;4.30;;
2406;SDS011;37709;53.480;9.688;2024-03-23T02:39:46;17.40;;;5.10;;
2406;SDS011;37709;53.480;9.688;2024-03-23T02:42:12;19.70;;;4.03;;
2406;SDS011;37709;53.480;9.688;2024-03-23T02:44:38;25.93;;;4.73;;
2406;SDS011;37709;53.480;9.688;2024-03-23T02:47:05;23.90;;;5.23;;
2406;SDS011;37709;53.480;9.688;2024-03-23T02:49:31;13.47;;;4.17;;
2406;SDS011;37709;53.480;9.688;2024-03-23T02:51:58;17.10;;;4.90;;
2406;SDS011;37709;53.480;9.688;2024-03-23T02:54:24;19.70;;;4.70;;
2406;SDS011;37709;53.480;9.688;2024-03-23T02:56:52;24.23;;;5.30;;
2406;SDS011;37709;53.480;9.688;2024-03-23T02:59:18;26.10;;;5.10;;
2406;SDS011;37709;53.480;9.688;2024-03-23T03:01:44;18.37;;;4.70;;
2406;SDS011;37709;53.480;9.688;2024-03-23T03:04:11;15.80;;;4.83;;
2406;SDS011;37709;53.480;9.688;2024-03-23T03:06:37;21.27;;;3.60;;
2406;SDS011;37709;53.480;9.688;2024-03-23T03:09:03;21.23;;;4.67;;
2406;SDS011;37709;53.480;9.688;2024-03-23T03:11:30;14.30;;;4.27;;
2406;SDS011;37709;53.480;9.688;2024-03-23T03:13:56;17.07;;;3.60;;
2406;SDS011;37709;53.480;9.688;2024-03-23T03:16:23;17.70;;;4.90;;
2406;SDS011;37709;53.480;9.688;2024-03-23T03:18:49;15.30;;;5.00;;
2406;SDS011;37709;53.480;9.688;2024-03-23T03:21:15;16.83;;;4.10;;
2406;SDS011;37709;53.480;9.688;2024-03-23T03:23:42;23.37;;;4.47;;
2406;SDS011;37709;53.480;9.688;2024-03-23T03:26:11;17.20;;;4.10;;
2406;SDS011;37709;53.480;9.688;2024-03-23T03:28:37;17.47;;;4.10;;
2406;SDS011;37709;53.480;9.688;2024-03-23T03:31:04;17.17;;;4.40;;
2406;SDS011;37709;53.480;9.688;2024-03-23T03:33:30;18.83;;;4.20;;
2406;SDS011;37709;53.480;9.688;2024-03-23T03:35:56;14.50;;;4.60;;
2406;SDS011;37709;53.480;9.688;2024-03-23T03:38:23;18.83;;;3.67;;
2406;SDS011;37709;53.480;9.688;2024-03-23T03:40:49;20.60;;;4.80;;
2406;SDS011;37709;53.480;9.688;2024-03-23T03:43:16;13.73;;;3.63;;
2406;SDS011;37709;53.480;9.688;2024-03-23T03:45:42;21.43;;;4.03;;
2406;SDS011;37709;53.480;9.688;2024-03-23T03:48:17;23.90;;;4.07;;
2406;SDS011;37709;53.480;9.688;2024-03-23T03:50:43;13.03;;;3.80;;
2406;SDS011;37709;53.480;9.688;2024-03-23T03:53:10;19.70;;;5.20;;
2406;SDS011;37709;53.480;9.688;2024-03-23T03:55:36;25.90;;;5.03;;
2406;SDS011;37709;53.480;9.688;2024-03-23T03:58:02;17.93;;;4.30;;
2406;SDS011;37709;53.480;9.688;2024-03-23T04:00:30;11.73;;;3.77;;
2406;SDS011;37709;53.480;9.688;2024-03-23T04:02:57;20.87;;;5.70;;
2406;SDS011;37709;53.480;9.688;2024-03-23T04:05:24;12.00;;;3.93;;
2406;SDS011;37709;53.480;9.688;2024-03-23T04:07:51;20.53;;;4.50;;
2406;SDS011;37709;53.480;9.688;2024-03-23T04:10:18;20.43;;;5.63;;
2406;SDS011;37709;53.480;9.688;2024-03-23T04:12:45;16.67;;;4.00;;
2406;SDS011;37709;53.480;9.688;2024-03-23T04:15:11;16.50;;;3.77;;
2406;SDS011;37709;53.480;9.688;2024-03-23T04:17:38;15.17;;;4.07;;
2406;SDS011;37709;53.480;9.688;2024-03-23T04:20:04;17.93;;;4.77;;
2406;SDS011;37709;53.480;9.688;2024-03-23T04:22:35;16.23;;;4.30;;
2406;SDS011;37709;53.480;9.688;2024-03-23T04:25:01;21.30;;;4.73;;
2406;SDS011;37709;53.480;9.688;2024-03-23T04:27:38;16.00;;;4.27;;
2406;SDS011;37709;53.480;9.688;2024-03-23T04:30:06;20.20;;;5.00;;
2406;SDS011;37709;53.480;9.688;2024-03-23T04:32:38;22.30;;;4.80;;
2406;SDS011;37709;53.480;9.688;2024-03-23T04:35:04;15.30;;;3.90;;
2406;SDS011;37709;53.480;9.688;2024-03-23T04:37:32;21.70;;;4.57;;
2406;SDS011;37709;53.480;9.688;2024-03-23T04:40:01;22.20;;;5.30;;
2406;SDS011;37709;53.480;9.688;2024-03-23T04:42:28;19.30;;;4.50;;
2406;SDS011;37709;53.480;9.688;2024-03-23T04:44:54;14.23;;;3.90;;
2406;SDS011;37709;53.480;9.688;2024-03-23T04:47:21;24.93;;;5.20;;
2406;SDS011;37709;53.480;9.688;2024-03-23T04:49:49;22.73;;;4.90;;
2406;SDS011;37709;53.480;9.688;2024-03-23T04:52:18;19.90;;;4.23;;
2406;SDS011;37709;53.480;9.688;2024-03-23T04:54:45;14.67;;;4.50;;
2406;SDS011;37709;53.480;9.688;2024-03-23T04:57:12;15.43;;;4.47;;
2406;SDS011;37709;53.480;9.688;2024-03-23T04:59:46;15.93;;;3.87;;
2406;SDS011;37709;53.480;9.688;2024-03-23T05:02:14;26.40;;;5.23;;
2406;SDS011;37709;53.480;9.688;2024-03-23T05:04:41;17.80;;;3.87;;
2406;SDS011;37709;53.480;9.688;2024-03-23T05:07:08;16.57;;;3.40;;
2406;SDS011;37709;53.480;9.688;2024-03-23T05:09:34;20.53;;;4.60;;
2406;SDS011;37709;53.480;9.688;2024-03-23T05:12:00;14.57;;;3.47;;
2406;SDS011;37709;53.480;9.688;2024-03-23T05:14:27;13.83;;;4.60;;
2406;SDS011;37709;53.480;9.688;2024-03-23T05:16:53;18.03;;;4.40;;
2406;SDS011;37709;53.480;9.688;2024-03-23T05:19:20;18.80;;;5.03;;
2406;SDS011;37709;53.480;9.688;2024-03-23T05:21:47;22.33;;;4.50;;
2406;SDS011;37709;53.480;9.688;2024-03-23T05:24:13;15.93;;;3.77;;
2406;SDS011;37709;53.480;9.688;2024-03-23T05:26:41;17.20;;;3.63;;
2406;SDS011;37709;53.480;9.688;2024-03-23T05:29:08;16.03;;;4.83;;
2406;SDS011;37709;53.480;9.688;2024-03-23T05:31:39;21.20;;;5.20;;
2406;SDS011;37709;53.480;9.688;2024-03-23T05:34:08;19.50;;;4.97;;
2406;SDS011;37709;53.480;9.688;2024-03-23T05:36:36;12.73;;;5.17;;
2406;SDS011;37709;53.480;9.688;2024-03-23T05:39:03;14.70;;;4.50;;
2406;SDS011;37709;53.480;9.688;2024-03-23T05:41:29;13.70;;;4.03;;
2406;SDS011;37709;53.480;9.688;2024-03-23T05:43:56;16.10;;;5.13;;
2406;SDS011;37709;53.480;9.688;2024-03-23T05:46:23;18.07;;;4.10;;
2406;SDS011;37709;53.480;9.688;2024-03-23T05:48:50;15.37;;;4.03;;
2406;SDS011;37709;53.480;9.688;2024-03-23T05:51:25;15.47;;;4.63;;
2406;SDS011;37709;53.480;9.688;2024-03-23T05:53:52;16.80;;;4.80;;
2406;SDS011;37709;53.480;9.688;2024-03-23T05:56:19;12.53;;;4.20;;
2406;SDS011;37709;53.480;9.688;2024-03-23T05:58:46;20.87;;;5.40;;
2406;SDS011;37709;53.480;9.688;2024-03-23T06:01:13;17.50;;;3.77;;
2406;SDS011;37709;53.480;9.688;2024-03-23T06:03:39;15.53;;;4.90;;
2406;SDS011;37709;53.480;9.688;2024-03-23T06:06:05;19.60;;;3.87;;
2406;SDS011;37709;53.480;9.688;2024-03-23T06:08:38;13.93;;;4.10;;
2406;SDS011;37709;53.480;9.688;2024-03-23T06:11:05;10.50;;;3.60;;
2406;SDS011;37709;53.480;9.688;2024-03-23T06:13:34;11.73;;;3.23;;
2406;SDS011;37709;53.480;9.688;2024-03-23T06:16:01;12.93;;;4.50;;
2406;SDS011;37709;53.480;9.688;2024-03-23T06:18:27;17.33;;;5.30;;
2406;SDS011;37709;53.480;9.688;2024-03-23T06:20:54;15.50;;;3.70;;
2406;SDS011;37709;53.480;9.688;2024-03-23T06:23:21;11.43;;;4.23;;
2406;SDS011;37709;53.480;9.688;2024-03-23T06:25:47;13.37;;;4.07;;
2406;SDS011;37709;53.480;9.688;2024-03-23T06:28:14;22.33;;;4.27;;
2406;SDS011;37709;53.480;9.688;2024-03-23T06:30:41;12.17;;;4.50;;
2406;SDS011;37709;53.480;9.688;2024-03-23T06:33:09;14.37;;;5.63;;
2406;SDS011;37709;53.480;9.688;2024-03-23T06:35:35;18.77;;;3.67;;
2406;SDS011;37709;53.480;9.688;2024-03-23T06:38:01;12.70;;;4.10;;
2406;SDS011;37709;53.480;9.688;2024-03-23T06:40:28;15.13;;;3.70;;
2406;SDS011;37709;53.480;9.688;2024-03-23T06:42:54;11.20;;;4.00;;
2406;SDS011;37709;53.480;9.688;2024-03-23T06:45:20;16.93;;;4.20;;
2406;SDS011;37709;53.480;9.688;2024-03-23T06:47:49;15.27;;;5.20;;
2406;SDS011;37709;53.480;9.688;2024-03-23T06:50:16;13.33;;;3.80;;
2406;SDS011;37709;53.480;9.688;2024-03-23T06:52:43;17.73;;;4.23;;
2406;SDS011;37709;53.480;9.688;2024-03-23T06:55:09;13.30;;;4.07;;
2406;SDS011;37709;53.480;9.688;2024-03-23T06:57:35;11.23;;;3.57;;
2406;SDS011;37709;53.480;9.688;2024-03-23T07:00:02;17.20;;;4.77;;
2406;SDS011;37709;53.480;9.688;2024-03-23T07:02:29;21.30;;;4.17;;
2406;SDS011;37709;53.480;9.688;2024-03-23T07:04:56;14.10;;;3.60;;
2406;SDS011;37709;53.480;9.688;2024-03-23T07:10:15;14.57;;;4.10;;
2406;SDS011;37709;53.480;9.688;2024-03-23T07:12:42;11.50;;;4.30;;
2406;SDS011;37709;53.480;9.688;2024-03-23T07:15:08;9.13;;;3.30;;
2406;SDS011;37709;53.480;9.688;2024-03-23T07:17:36;13.90;;;3.90;;
2406;SDS011;37709;53.480;9.688;2024-03-23T07:20:02;9.63;;;4.23;;
2406;SDS011;37709;53.480;9.688;2024-03-23T07:22:30;13.30;;;4.37;;
2406;SDS011;37709;53.480;9.688;2024-03-23T07:25:00;12.10;;;4.13;;
2406;SDS011;37709;53.480;9.688;2024-03-23T07:27:29;14.10;;;4.03;;
2406;SDS011;37709;53.480;9.688;2024-03-23T07:29:56;13.77;;;3.30;;
2406;SDS011;37709;53.480;9.688;2024-03-23T07:32:22;15.53;;;3.47;;
2406;SDS011;37709;53.480;9.688;2024-03-23T07:34:49;11.17;;;3.90;;
2406;SDS011;37709;53.480;9.688;2024-03-23T07:37:15;13.17;;;3.53;;
2406;SDS011;37709;53.480;9.688;2024-03-23T07:39:43;9.17;;;3.77;;
2406;SDS011;37709;53.480;9.688;2024-03-23T07:42:10;10.80;;;3.10;;
2406;SDS011;37709;53.480;9.688;2024-03-23T07:44:37;9.23;;;3.23;;
2406;SDS011;37709;53.480;9.688;2024-03-23T07:47:03;19.57;;;3.80;;
2406;SDS011;37709;53.480;9.688;2024-03-23T07:49:30;8.33;;;3.10;;
2406;SDS011;37709;53.480;9.688;2024-03-23T07:51:56;7.47;;;3.10;;
2406;SDS011;37709;53.480;9.688;2024-03-23T07:54:25;9.30;;;3.47;;
2406;SDS011;37709;53.480;9.688;2024-03-23T07:56:51;9.50;;;3.33;;
2406;SDS011;37709;53.480;9.688;2024-03-23T07:59:18;11.50;;;3.43;;
2406;SDS011;37709;53.480;9.688;2024-03-23T08:01:45;9.37;;;3.83;;
2406;SDS011;37709;53.480;9.688;2024-03-23T08:04:11;10.07;;;2.87;;
2406;SDS011;37709;53.480;9.688;2024-03-23T08:06:38;9.07;;;3.40;;
2406;SDS011;37709;53.480;9.688;2024-03-23T08:09:04;8.07;;;3.23;;
2406;SDS011;37709;53.480;9.688;2024-03-23T08:11:32;8.20;;;3.30;;
2406;SDS011;37709;53.480;9.688;2024-03-23T08:14:00;7.67;;;2.40;;
2406;SDS011;37709;53.480;9.688;2024-03-23T08:16:28;8.27;;;2.60;;
2406;SDS011;37709;53.480;9.688;2024-03-23T08:18:54;8.67;;;2.87;;
2406;SDS011;37709;53.480;9.688;2024-03-23T08:21:23;11.80;;;3.50;;
2406;SDS011;37709;53.480;9.688;2024-03-23T08:23:51;10.80;;;3.47;;
2406;SDS011;37709;53.480;9.688;2024-03-23T08:26:19;7.37;;;2.70;;
2406;SDS011;37709;53.480;9.688;2024-03-23T08:28:47;6.03;;;2.83;;
2406;SDS011;37709;53.480;9.688;2024-03-23T08:31:14;10.53;;;3.23;;
2406;SDS011;37709;53.480;9.688;2024-03-23T08:33:40;15.70;;;3.60;;
2406;SDS011;37709;53.480;9.688;2024-03-23T08:36:10;9.13;;;3.57;;
2406;SDS011;37709;53.480;9.688;2024-03-23T08:38:40;10.87;;;3.00;;
2406;SDS011;37709;53.480;9.688;2024-03-23T08:41:07;10.20;;;3.07;;
2406;SDS011;37709;53.480;9.688;2024-03-23T08:43:35;9.90;;;3.60;;
2406;SDS011;37709;53.480;9.688;2024-03-23T08:48:35;8.30;;;2.73;;
2406;SDS011;37709;53.480;9.688;2024-03-23T08:51:06;10.53;;;3.20;;
2406;SDS011;37709;53.480;9.688;2024-03-23T08:53:34;10.33;;;3.30;;
2406;SDS011;37709;53.480;9.688;2024-03-23T08:56:01;6.10;;;2.40;;
2406;SDS011;37709;53.480;9.688;2024-03-23T08:58:29;8.33;;;3.60;;
2406;SDS011;37709;53.480;9.688;2024-03-23T09:00:57;7.90;;;2.87;;
2406;SDS011;37709;53.480;9.688;2024-03-23T09:03:29;8.47;;;3.37;;
2406;SDS011;37709;53.480;9.688;2024-03-23T09:05:57;7.80;;;2.60;;
2406;SDS011;37709;53.480;9.688;2024-03-23T09:08:24;9.50;;;3.60;;
2406;SDS011;37709;53.480;9.688;2024-03-23T09:10:51;10.20;;;2.80;;
2406;SDS011;37709;53.480;9.688;2024-03-23T09:13:19;6.70;;;2.80;;
2406;SDS011;37709;53.480;9.688;2024-03-23T09:15:50;8.67;;;2.60;;
2406;SDS011;37709;53.480;9.688;2024-03-23T09:18:17;9.83;;;2.80;;
2406;SDS011;37709;53.480;9.688;2024-03-23T09:20:44;10.87;;;3.13;;
2406;SDS011;37709;53.480;9.688;2024-03-23T09:23:11;8.87;;;2.27;;
2406;SDS011;37709;53.480;9.688;2024-03-23T09:25:38;8.83;;;2.40;;
2406;SDS011;37709;53.480;9.688;2024-03-23T09:28:05;7.53;;;2.53;;
2406;SDS011;37709;53.480;9.688;2024-03-23T09:30:34;8.90;;;2.97;;
2406;SDS011;37709;53.480;9.688;2024-03-23T09:33:02;8.33;;;2.10;;
2406;SDS011;37709;53.480;9.688;2024-03-23T09:35:30;7.63;;;2.40;;
2406;SDS011;37709;53.480;9.688;2024-03-23T09:37:57;4.33;;;2.07;;
2406;SDS011;37709;53.480;9.688;2024-03-23T09:40:23;3.90;;;1.70;;
2406;SDS011;37709;53.480;9.688;2024-03-23T09:42:50;6.10;;;2.70;;
2406;SDS011;37709;53.480;9.688;2024-03-23T09:45:17;9.87;;;2.20;;
2406;SDS011;37709;53.480;9.688;2024-03-23T09:47:48;5.93;;;1.80;;
2406;SDS011;37709;53.480;9.688;2024-03-23T09:50:16;6.40;;;2.20;;
2406;SDS011;37709;53.480;9.688;2024-03-23T09:52:43;5.53;;;1.77;;
2406;SDS011;37709;53.480;9.688;2024-03-23T09:55:12;5.30;;;1.67;;
2406;SDS011;37709;53.480;9.688;2024-03-23T09:57:42;7.83;;;2.30;;
2406;SDS011;37709;53.480;9.688;2024-03-23T10:00:09;7.03;;;1.90;;
2406;SDS011;37709;53.480;9.688;2024-03-23T10:02:38;8.20;;;2.23;;
2406;SDS011;37709;53.480;9.688;2024-03-23T10:05:04;7.67;;;1.80;;
2406;SDS011;37709;53.480;9.688;2024-03-23T10:07:46;5.30;;;1.70;;
2406;SDS011;37709;53.480;9.688;2024-03-23T10:10:13;5.07;;;1.97;;
2406;SDS011;37709;53.480;9.688;2024-03-23T10:12:48;5.63;;;2.20;;
2406;SDS011;37709;53.480;9.688;2024-03-23T10:15:22;7.33;;;2.07;;
2406;SDS011;37709;53.480;9.688;2024-03-23T10:17:50;4.67;;;1.60;;
2406;SDS011;37709;53.480;9.688;2024-03-23T10:20:21;2.93;;;1.20;;
2406;SDS011;37709;53.480;9.688;2024-03-23T10:22:49;3.83;;;1.50;;
2406;SDS011;37709;53.480;9.688;2024-03-23T10:25:17;4.10;;;1.70;;
2406;SDS011;37709;53.480;9.688;2024-03-23T10:28:00;3.50;;;1.40;;
2406;SDS011;37709;53.480;9.688;2024-03-23T10:30:27;7.50;;;1.60;;
2406;SDS011;37709;53.480;9.688;2024-03-23T10:33:10;6.80;;;1.87;;
2406;SDS011;37709;53.480;9.688;2024-03-23T10:35:37;7.00;;;2.23;;
2406;SDS011;37709;53.480;9.688;2024-03-23T10:38:05;7.00;;;1.70;;
2406;SDS011;37709;53.480;9.688;2024-03-23T10:40:35;8.10;;;2.07;;
2406;SDS011;37709;53.480;9.688;2024-03-23T10:43:05;4.07;;;1.93;;
2406;SDS011;37709;53.480;9.688;2024-03-23T10:45:34;7.13;;;2.00;;
2406;SDS011;37709;53.480;9.688;2024-03-23T10:48:01;7.40;;;1.80;;
2406;SDS011;37709;53.480;9.688;2024-03-23T10:50:28;4.10;;;1.70;;
2406;SDS011;37709;53.480;9.688;2024-03-23T10:52:55;4.73;;;1.60;;
2406;SDS011;37709;53.480;9.688;2024-03-23T10:55:25;5.23;;;2.17;;
2406;SDS011;37709;53.480;9.688;2024-03-23T10:57:55;7.17;;;1.73;;
2406;SDS011;37709;53.480;9.688;2024-03-23T11:00:25;2.97;;;1.17;;
2406;SDS011;37709;53.480;9.688;2024-03-23T11:02:52;5.23;;;1.50;;
2406;SDS011;37709;53.480;9.688;2024-03-23T11:05:31;6.57;;;1.40;;
2406;SDS011;37709;53.480;9.688;2024-03-23T11:07:58;4.07;;;1.33;;
2406;SDS011;37709;53.480;9.688;2024-03-23T11:10:26;5.07;;;1.30;;
2406;SDS011;37709;53.480;9.688;2024-03-23T11:12:57;5.93;;;2.00;;
2406;SDS011;37709;53.480;9.688;2024-03-23T11:15:44;6.33;;;1.60;;
2406;SDS011;37709;53.480;9.688;2024-03-23T11:18:10;4.67;;;1.47;;
2406;SDS011;37709;53.480;9.688;2024-03-23T11:20:37;3.10;;;1.50;;
2406;SDS011;37709;53.480;9.688;2024-03-23T11:23:04;5.97;;;1.83;;
2406;SDS011;37709;53.480;9.688;2024-03-23T11:25:30;2.73;;;1.40;;
2406;SDS011;37709;53.480;9.688;2024-03-23T11:27:57;6.50;;;1.63;;
2406;SDS011;37709;53.480;9.688;2024-03-23T11:30:37;5.10;;;1.20;;
2406;SDS011;37709;53.480;9.688;2024-03-23T11:33:06;3.97;;;1.33;;
2406;SDS011;37709;53.480;9.688;2024-03-23T11:35:35;4.30;;;1.57;;
2406;SDS011;37709;53.480;9.688;2024-03-23T11:38:05;2.53;;;1.20;;
2406;SDS011;37709;53.480;9.688;2024-03-23T11:40:44;3.90;;;1.53;;
2406;SDS011;37709;53.480;9.688;2024-03-23T11:43:13;8.07;;;2.17;;
2406;SDS011;37709;53.480;9.688;2024-03-23T11:48:15;4.30;;;1.60;;
2406;SDS011;37709;53.480;9.688;2024-03-23T11:50:44;6.07;;;1.40;;
2406;SDS011;37709;53.480;9.688;2024-03-23T11:53:19;4.47;;;1.40;;
2406;SDS011;37709;53.480;9.688;2024-03-23T11:55:53;3.30;;;1.20;;
2406;SDS011;37709;53.480;9.688;2024-03-23T11:58:23;3.40;;;1.27;;
2406;SDS011;37709;53.480;9.688;2024-03-23T12:03:28;7.40;;;1.60;;
2406;SDS011;37709;53.480;9.688;2024-03-23T12:05:58;4.73;;;1.77;;
2406;SDS011;37709;53.480;9.688;2024-03-23T12:08:34;3.53;;;1.40;;
2406;SDS011;37709;53.480;9.688;2024-03-23T12:11:05;4.67;;;1.70;;
2406;SDS011;37709;53.480;9.688;2024-03-23T12:13:33;2.80;;;1.17;;
2406;SDS011;37709;53.480;9.688;2024-03-23T12:16:13;2.10;;;1.30;;
2406;SDS011;37709;53.480;9.688;2024-03-23T12:18:42;3.20;;;1.20;;
2406;SDS011;37709;53.480;9.688;2024-03-23T12:21:10;3.70;;;1.00;;
2406;SDS011;37709;53.480;9.688;2024-03-23T12:23:38;2.50;;;1.10;;
2406;SDS011;37709;53.480;9.688;2024-03-23T12:26:06;2.00;;;0.80;;
2406;SDS011;37709;53.480;9.688;2024-03-23T12:28:33;3.40;;;1.20;;
2406;SDS011;37709;53.480;9.688;2024-03-23T12:31:00;2.87;;;1.00;;
2406;SDS011;37709;53.480;9.688;2024-03-23T12:33:27;2.60;;;1.03;;
2406;SDS011;37709;53.480;9.688;2024-03-23T12:35:54;2.17;;;0.80;;
2406;SDS011;37709;53.480;9.688;2024-03-23T12:38:20;3.70;;;1.30;;
2406;SDS011;37709;53.480;9.688;2024-03-23T12:40:48;1.73;;;0.90;;
2406;SDS011;37709;53.480;9.688;2024-03-23T12:43:16;5.03;;;1.60;;
2406;SDS011;37709;53.480;9.688;2024-03-23T12:45:47;1.93;;;1.20;;
2406;SDS011;37709;53.480;9.688;2024-03-23T12:48:15;2.70;;;1.13;;
2406;SDS011;37709;53.480;9.688;2024-03-23T12:50:42;3.13;;;0.80;;
2406;SDS011;37709;53.480;9.688;2024-03-23T12:53:09;2.53;;;0.93;;
2406;SDS011;37709;53.480;9.688;2024-03-23T12:55:36;3.20;;;1.10;;
2406;SDS011;37709;53.480;9.688;2024-03-23T12:58:03;3.20;;;0.97;;
2406;SDS011;37709;53.480;9.688;2024-03-23T13:00:30;3.10;;;1.40;;
2406;SDS011;37709;53.480;9.688;2024-03-23T13:02:58;9.33;;;1.83;;
2406;SDS011;37709;53.480;9.688;2024-03-23T13:05:24;2.33;;;1.23;;
2406;SDS011;37709;53.480;9.688;2024-03-23T13:07:53;4.20;;;1.70;;
2406;SDS011;37709;53.480;9.688;2024-03-23T13:10:19;4.33;;;1.63;;
2406;SDS011;37709;53.480;9.688;2024-03-23T13:12:46;4.77;;;1.63;;
2406;SDS011;37709;53.480;9.688;2024-03-23T13:15:12;3.63;;;1.50;;
2406;SDS011;37709;53.480;9.688;2024-03-23T13:17:41;3.93;;;1.13;;
2406;SDS011;37709;53.480;9.688;2024-03-23T13:20:08;1.60;;;1.00;;
2406;SDS011;37709;53.480;9.688;2024-03-23T13:22:39;6.23;;;1.20;;
2406;SDS011;37709;53.480;9.688;2024-03-23T13:25:05;1.43;;;0.60;;
2406;SDS011;37709;53.480;9.688;2024-03-23T13:27:33;1.43;;;0.77;;
2406;SDS011;37709;53.480;9.688;2024-03-23T13:29:59;1.10;;;0.67;;
2406;SDS011;37709;53.480;9.688;2024-03-23T13:32:26;1.33;;;0.50;;
2406;SDS011;37709;53.480;9.688;2024-03-23T13:34:52;1.77;;;0.70;;
2406;SDS011;37709;53.480;9.688;2024-03-23T13:37:18;1.10;;;0.67;;
2406;SDS011;37709;53.480;9.688;2024-03-23T13:39:46;1.77;;;0.70;;
2406;SDS011;37709;53.480;9.688;2024-03-23T13:42:12;2.70;;;0.90;;
2406;SDS011;37709;53.480;9.688;2024-03-23T13:44:39;2.00;;;0.60;;
2406;SDS011;37709;53.480;9.688;2024-03-23T13:47:05;1.30;;;0.60;;
2406;SDS011;37709;53.480;9.688;2024-03-23T13:49:32;1.40;;;1.03;;
2406;SDS011;37709;53.480;9.688;2024-03-23T13:51:58;2.00;;;0.70;;
2406;SDS011;37709;53.480;9.688;2024-03-23T13:54:26;2.27;;;0.80;;
2406;SDS011;37709;53.480;9.688;2024-03-23T13:56:53;1.83;;;0.70;;
2406;SDS011;37709;53.480;9.688;2024-03-23T13:59:21;1.93;;;0.80;;
2406;SDS011;37709;53.480;9.688;2024-03-23T14:01:49;5.40;;;1.10;;
2406;SDS011;37709;53.480;9.688;2024-03-23T14:04:17;1.57;;;0.60;;
2406;SDS011;37709;53.480;9.688;2024-03-23T14:06:46;2.50;;;0.80;;
2406;SDS011;37709;53.480;9.688;2024-03-23T14:09:12;2.70;;;1.10;;
2406;SDS011;37709;53.480;9.688;2024-03-23T14:11:40;2.23;;;0.70;;
2406;SDS011;37709;53.480;9.688;2024-03-23T14:14:10;2.30;;;0.80;;
2406;SDS011;37709;53.480;9.688;2024-03-23T14:16:36;4.13;;;0.80;;
2406;SDS011;37709;53.480;9.688;2024-03-23T14:19:03;2.23;;;0.77;;
2406;SDS011;37709;53.480;9.688;2024-03-23T14:21:32;3.47;;;1.00;;
2406;SDS011;37709;53.480;9.688;2024-03-23T14:24:00;3.70;;;0.90;;
2406;SDS011;37709;53.480;9.688;2024-03-23T14:26:28;4.30;;;0.90;;
2406;SDS011;37709;53.480;9.688;2024-03-23T14:28:54;4.87;;;1.27;;
2406;SDS011;37709;53.480;9.688;2024-03-23T14:31:21;3.77;;;1.07;;
2406;SDS011;37709;53.480;9.688;2024-03-23T14:33:47;3.90;;;1.27;;
2406;SDS011;37709;53.480;9.688;2024-03-23T14:36:16;2.10;;;1.10;;
2406;SDS011;37709;53.480;9.688;2024-03-23T14:38:47;5.13;;;1.20;;
2406;SDS011;37709;53.480;9.688;2024-03-23T14:41:14;2.90;;;1.20;;
2406;SDS011;37709;53.480;9.688;2024-03-23T14:43:41;2.70;;;1.23;;
2406;SDS011;37709;53.480;9.688;2024-03-23T14:46:13;1.87;;;0.70;;
2406;SDS011;37709;53.480;9.688;2024-03-23T14:48:42;5.50;;;1.20;;
2406;SDS011;37709;53.480;9.688;2024-03-23T14:51:10;3.97;;;1.83;;
2406;SDS011;37709;53.480;9.688;2024-03-23T14:56:28;2.00;;;0.93;;
2406;SDS011;37709;53.480;9.688;2024-03-23T14:58:55;3.43;;;2.17;;
2406;SDS011;37709;53.480;9.688;2024-03-23T15:01:22;5.40;;;1.17;;
2406;SDS011;37709;53.480;9.688;2024-03-23T15:03:50;2.03;;;1.70;;
2406;SDS011;37709;53.480;9.688;2024-03-23T15:06:19;2.43;;;1.10;;
2406;SDS011;37709;53.480;9.688;2024-03-23T15:08:46;2.80;;;1.37;;
2406;SDS011;37709;53.480;9.688;2024-03-23T15:11:15;1.60;;;0.80;;
2406;SDS011;37709;53.480;9.688;2024-03-23T15:13:45;1.73;;;0.70;;
2406;SDS011;37709;53.480;9.688;2024-03-23T15:16:19;2.03;;;1.00;;
2406;SDS011;37709;53.480;9.688;2024-03-23T15:18:46;2.03;;;0.70;;
2406;SDS011;37709;53.480;9.688;2024-03-23T15:21:13;2.97;;;0.93;;
2406;SDS011;37709;53.480;9.688;2024-03-23T15:23:45;1.63;;;0.70;;
2406;SDS011;37709;53.480;9.688;2024-03-23T15:26:13;1.83;;;0.90;;
2406;SDS011;37709;53.480;9.688;2024-03-23T15:28:42;18.60;;;15.40;;
2406;SDS011;37709;53.480;9.688;2024-03-23T15:31:24;2.70;;;1.20;;
2406;SDS011;37709;53.480;9.688;2024-03-23T15:33:52;2.13;;;0.90;;
2406;SDS011;37709;53.480;9.688;2024-03-23T15:36:18;2.73;;;1.00;;
2406;SDS011;37709;53.480;9.688;2024-03-23T15:38:45;1.90;;;0.80;;
2406;SDS011;37709;53.480;9.688;2024-03-23T15:41:11;4.60;;;1.23;;
2406;SDS011;37709;53.480;9.688;2024-03-23T15:43:39;2.60;;;1.20;;
2406;SDS011;37709;53.480;9.688;2024-03-23T15:46:08;4.47;;;1.23;;
2406;SDS011;37709;53.480;9.688;2024-03-23T15:48:40;2.00;;;0.93;;
2406;SDS011;37709;53.480;9.688;2024-03-23T15:51:16;6.80;;;1.30;;
2406;SDS011;37709;53.480;9.688;2024-03-23T15:53:43;2.03;;;1.23;;
2406;SDS011;37709;53.480;9.688;2024-03-23T15:56:11;3.13;;;0.70;;
2406;SDS011;37709;53.480;9.688;2024-03-23T15:58:39;4.00;;;0.80;;
2406;SDS011;37709;53.480;9.688;2024-03-23T16:01:08;2.43;;;1.00;;
2406;SDS011;37709;53.480;9.688;2024-03-23T16:03:38;2.00;;;0.77;;
2406;SDS011;37709;53.480;9.688;2024-03-23T16:06:07;1.80;;;0.80;;